Time;durP1;ratioP1;P1;durP2;ratioP2;P2;SDS_P1;SDS_P2;PMS_P1;PMS_P2;Temp;Humidity;BMP_temperature;BMP_pressure;BME280_temperature;BME280_humidity;BME280_pressure;Samples;Min_cycle;Max_cycle;Signal;HPM_P1;HPM_P2
2022/01/12 00:00:52;;;;;;;114.93;29.13;;;;;;;;;;4946372;28;20027;-80
2022/01/12 00:03:18;;;;;;;88.70;26.92;;;;;;;;;;4965160;28;20058;-80
2022/01/12 00:05:44;;;;;;;86.30;25.45;;;;;;;;;;4949417;28;20546;-80
2022/01/12 00:08:11;;;;;;;93.90;25.90;;;;;;;;;;4961973;28;20059;-80
2022/01/12 00:10:38;;;;;;;103.82;24.98;;;;;;;;;;4960780;28;20058;-80
2022/01/12 00:13:04;;;;;;;114.75;30.05;;;;;;;;;;4949090;28;20039;-80
2022/01/12 00:15:30;;;;;;;60.45;17.13;;;;;;;;;;4945279;28;20507;-79
2022/01/12 00:17:56;;;;;;;122.32;30.95;;;;;;;;;;4945230;28;20031;-79
2022/01/12 00:20:23;;;;;;;130.85;28.00;;;;;;;;;;4941091;28;20038;-80
2022/01/12 00:22:51;;;;;;;124.25;30.27;;;;;;;;;;4959619;28;20046;-80
2022/01/12 00:33:14;;;;;;;119.07;27.25;;;;;;;;;;4960361;28;20049;-80
2022/01/12 00:35:42;;;;;;;87.93;24.88;;;;;;;;;;4946232;28;20423;-79
2022/01/12 00:38:08;;;;;;;128.63;30.27;;;;;;;;;;4947311;28;20494;-80
2022/01/12 00:40:38;;;;;;;146.80;30.60;;;;;;;;;;4964596;28;20035;-79
2022/01/12 00:43:04;;;;;;;95.25;26.17;;;;;;;;;;4943542;28;20562;-80
2022/01/12 00:45:32;;;;;;;141.73;32.40;;;;;;;;;;4949003;28;20027;-80
2022/01/12 00:47:58;;;;;;;115.63;29.02;;;;;;;;;;4945371;28;20022;-79
2022/01/12 00:50:24;;;;;;;131.32;30.08;;;;;;;;;;4950044;28;20031;-80
2022/01/12 00:52:53;;;;;;;133.30;28.77;;;;;;;;;;4944107;28;20483;-80
2022/01/12 00:55:19;;;;;;;117.70;29.00;;;;;;;;;;4943898;28;20046;-79
2022/01/12 00:57:45;;;;;;;141.65;32.75;;;;;;;;;;4944889;28;20075;-80
2022/01/12 01:00:11;;;;;;;140.50;31.80;;;;;;;;;;4942826;28;20035;-80
2022/01/12 01:02:37;;;;;;;128.95;28.38;;;;;;;;;;4948123;28;20372;-80
2022/01/12 01:05:04;;;;;;;141.10;32.47;;;;;;;;;;4946090;28;20472;-79
2022/01/12 01:07:30;;;;;;;111.05;26.35;;;;;;;;;;4947228;28;20043;-80
2022/01/12 01:10:08;;;;;;;153.60;33.08;;;;;;;;;;4967331;28;20109;-80
2022/01/12 01:12:35;;;;;;;166.55;32.47;;;;;;;;;;4940335;28;20023;-79
2022/01/12 01:15:09;;;;;;;163.73;31.45;;;;;;;;;;4960002;28;20033;-79
2022/01/12 01:25:48;;;;;;;216.68;34.88;;;;;;;;;;4963027;28;20109;-78
2022/01/12 01:28:15;;;;;;;217.75;37.95;;;;;;;;;;4940878;28;20046;-78
2022/01/12 01:30:43;;;;;;;230.15;39.17;;;;;;;;;;4942773;28;20035;-79
2022/01/12 01:33:11;;;;;;;185.65;35.72;;;;;;;;;;4945938;28;20050;-80
2022/01/12 01:35:39;;;;;;;210.07;36.22;;;;;;;;;;4943893;28;20506;-79
2022/01/12 01:38:06;;;;;;;272.75;39.35;;;;;;;;;;4959430;28;21039;-80
2022/01/12 01:40:33;;;;;;;279.75;41.03;;;;;;;;;;4962128;28;21560;-80
2022/01/12 01:53:42;;;;;;;157.00;28.58;;;;;;;;;;4957017;28;20445;-80
2022/01/12 01:56:08;;;;;;;191.75;32.25;;;;;;;;;;4949471;28;20767;-79
2022/01/12 01:58:34;;;;;;;200.60;33.15;;;;;;;;;;4947341;28;20098;-79
2022/01/12 02:01:00;;;;;;;144.70;29.05;;;;;;;;;;4968073;28;20644;-79
2022/01/12 02:03:29;;;;;;;145.60;27.27;;;;;;;;;;4950759;28;20041;-80
2022/01/12 02:05:55;;;;;;;171.93;30.35;;;;;;;;;;4949873;28;20042;-80
2022/01/12 02:08:21;;;;;;;95.63;25.05;;;;;;;;;;4965550;28;20866;-80
2022/01/12 02:10:52;;;;;;;134.93;27.50;;;;;;;;;;4940366;28;20167;-80
2022/01/12 02:13:18;;;;;;;128.25;27.48;;;;;;;;;;4927388;29;20666;-79
2022/01/12 02:15:46;;;;;;;127.93;26.25;;;;;;;;;;4924925;29;20059;-80
2022/01/12 02:39:50;;;;;;;118.78;26.25;;;;;;;;;;4944819;28;20090;-79
2022/01/12 02:40:07;;;;;;;111.97;24.20;;;;;;;;;;4941316;28;20039;-79
2022/01/12 02:42:35;;;;;;;107.25;24.65;;;;;;;;;;4942616;28;20039;-79
2022/01/12 02:50:44;;;;;;;93.97;24.48;;;;;;;;;;4940557;29;21348;-79
2022/01/12 02:55:56;;;;;;;113.70;25.10;;;;;;;;;;4941959;28;20436;-79
2022/01/12 02:58:22;;;;;;;105.40;24.27;;;;;;;;;;4929670;28;20493;-80
2022/01/12 03:01:18;;;;;;;102.40;23.10;;;;;;;;;;4927404;29;20454;-79
2022/01/12 03:03:46;;;;;;;108.93;22.83;;;;;;;;;;4929521;28;20031;-79
2022/01/12 03:06:18;;;;;;;123.70;23.42;;;;;;;;;;4927829;29;20682;-79
2022/01/12 03:08:44;;;;;;;75.82;21.02;;;;;;;;;;4925393;29;20063;-80
2022/01/12 03:11:13;;;;;;;85.55;21.27;;;;;;;;;;4947204;28;20524;-79
2022/01/12 03:13:40;;;;;;;96.28;22.15;;;;;;;;;;4951044;28;20035;-80
2022/01/12 03:16:18;;;;;;;69.88;19.92;;;;;;;;;;4950629;28;20035;-80
2022/01/12 03:18:55;;;;;;;68.50;18.90;;;;;;;;;;4947863;28;20118;-79
2022/01/12 03:21:24;;;;;;;71.63;19.05;;;;;;;;;;4944571;28;20031;-80
2022/01/12 03:23:51;;;;;;;58.78;18.13;;;;;;;;;;4962999;28;20066;-79
2022/01/12 03:26:17;;;;;;;225.13;24.08;;;;;;;;;;4949039;28;20548;-79
2022/01/12 03:28:51;;;;;;;165.30;20.75;;;;;;;;;;4947155;28;20650;-80
2022/01/12 03:31:21;;;;;;;61.50;16.13;;;;;;;;;;4942835;28;20027;-80
2022/01/12 03:38:59;;;;;;;206.98;21.08;;;;;;;;;;4962490;28;20536;-80
2022/01/12 03:41:27;;;;;;;124.38;16.70;;;;;;;;;;4952342;28;20030;-79
2022/01/12 03:43:53;;;;;;;54.03;17.23;;;;;;;;;;4945789;28;20038;-79
2022/01/12 03:46:20;;;;;;;59.15;15.90;;;;;;;;;;4954532;28;20035;-80
2022/01/12 03:48:46;;;;;;;69.32;18.15;;;;;;;;;;4958203;28;20712;-79
2022/01/12 03:51:12;;;;;;;131.18;21.67;;;;;;;;;;4963618;28;20479;-79
2022/01/12 03:53:38;;;;;;;63.40;17.70;;;;;;;;;;4944919;28;20505;-80
2022/01/12 03:56:05;;;;;;;83.88;19.48;;;;;;;;;;4947934;28;20039;-79
2022/01/12 03:58:31;;;;;;;72.90;19.35;;;;;;;;;;4948841;28;21439;-80
2022/01/12 04:00:57;;;;;;;77.05;19.48;;;;;;;;;;4939217;28;20122;-79
2022/01/12 04:03:25;;;;;;;63.38;17.60;;;;;;;;;;4944988;28;20121;-80
2022/01/12 04:08:23;;;;;;;110.07;21.20;;;;;;;;;;4966552;28;20038;-80
2022/01/12 04:10:53;;;;;;;67.63;18.95;;;;;;;;;;4942070;28;20055;-80
2022/01/12 04:13:22;;;;;;;68.45;17.58;;;;;;;;;;4927909;28;20801;-80
2022/01/12 04:15:49;;;;;;;66.53;16.92;;;;;;;;;;4927900;28;20215;-80
2022/01/12 04:18:23;;;;;;;68.25;18.70;;;;;;;;;;4932534;28;20043;-79
2022/01/12 04:20:50;;;;;;;94.25;22.08;;;;;;;;;;4920333;28;21054;-79
2022/01/12 04:23:18;;;;;;;113.82;20.77;;;;;;;;;;4925415;29;20504;-80
2022/01/12 04:25:57;;;;;;;143.23;22.45;;;;;;;;;;4928629;29;20480;-80
2022/01/12 04:28:25;;;;;;;244.85;25.17;;;;;;;;;;4940478;28;20106;-79
2022/01/12 04:30:52;;;;;;;351.60;33.45;;;;;;;;;;4928514;29;20436;-79
2022/01/12 04:33:18;;;;;;;284.52;28.13;;;;;;;;;;4927172;28;20391;-80
2022/01/12 04:35:48;;;;;;;382.00;35.22;;;;;;;;;;4930518;28;20065;-80
2022/01/12 04:38:15;;;;;;;367.73;31.77;;;;;;;;;;4924065;29;20114;-80
2022/01/12 04:40:41;;;;;;;367.65;33.70;;;;;;;;;;4930995;28;20575;-80
2022/01/12 04:43:09;;;;;;;215.30;26.02;;;;;;;;;;4941948;28;20031;-79
2022/01/12 04:48:51;;;;;;;237.05;24.08;;;;;;;;;;4941074;28;20039;-80
2022/01/12 04:50:47;;;;;;;;;;;;;;;;;;4932743;28;20476;-80
2022/01/12 04:53:14;;;;;;;222.30;21.90;;;;;;;;;;4928357;28;19915;-80
2022/01/12 04:55:41;;;;;;;181.77;19.63;;;;;;;;;;4921059;28;20039;-79
2022/01/12 04:58:08;;;;;;;180.55;20.92;;;;;;;;;;4944014;28;20023;-80
2022/01/12 05:00:34;;;;;;;208.32;21.10;;;;;;;;;;4940218;28;20518;-79
2022/01/12 05:13:55;;;;;;;184.90;21.17;;;;;;;;;;4940489;28;20038;-79
2022/01/12 05:16:22;;;;;;;345.23;33.65;;;;;;;;;;4942510;28;20035;-80
2022/01/12 05:18:49;;;;;;;194.75;22.83;;;;;;;;;;4926582;29;20046;-80
2022/01/12 05:21:15;;;;;;;161.60;19.25;;;;;;;;;;4928828;28;20032;-79
2022/01/12 05:23:41;;;;;;;209.73;22.05;;;;;;;;;;4927918;29;20091;-80
2022/01/12 05:26:08;;;;;;;259.42;23.42;;;;;;;;;;4929194;28;20042;-79
2022/01/12 05:28:34;;;;;;;187.00;21.50;;;;;;;;;;4929852;28;20033;-80
2022/01/12 05:31:02;;;;;;;274.13;26.73;;;;;;;;;;4923666;29;20075;-80
2022/01/12 05:33:28;;;;;;;156.38;19.63;;;;;;;;;;4924337;29;20742;-80
2022/01/12 05:35:56;;;;;;;154.07;21.45;;;;;;;;;;4927629;28;20027;-80
2022/01/12 05:38:23;;;;;;;164.07;18.98;;;;;;;;;;4924744;28;20411;-80
2022/01/12 05:40:50;;;;;;;133.77;17.10;;;;;;;;;;4944628;28;20134;-80
2022/01/12 05:43:21;;;;;;;159.68;18.70;;;;;;;;;;4928142;28;20023;-80
2022/01/12 05:45:47;;;;;;;197.80;17.38;;;;;;;;;;4926706;28;20623;-80
2022/01/12 05:50:41;;;;;;;235.77;24.10;;;;;;;;;;4942904;28;20039;-80
2022/01/12 05:53:08;;;;;;;281.92;22.10;;;;;;;;;;4939645;28;20031;-80
2022/01/12 05:55:34;;;;;;;174.10;17.35;;;;;;;;;;4928197;28;20079;-80
2022/01/12 05:58:00;;;;;;;85.43;15.07;;;;;;;;;;4920052;28;20115;-79
2022/01/12 06:00:27;;;;;;;145.25;14.68;;;;;;;;;;4921704;29;20042;-80
2022/01/12 06:02:53;;;;;;;122.60;15.70;;;;;;;;;;4923363;29;20035;-80
2022/01/12 06:05:20;;;;;;;103.95;14.23;;;;;;;;;;4940975;28;20426;-80
2022/01/12 06:07:47;;;;;;;127.47;15.55;;;;;;;;;;4935815;28;20407;-80
2022/01/12 06:10:13;;;;;;;49.08;11.48;;;;;;;;;;4926039;28;20027;-80
2022/01/12 06:12:45;;;;;;;49.20;11.48;;;;;;;;;;4950138;28;20550;-80
2022/01/12 06:15:12;;;;;;;42.88;12.73;;;;;;;;;;4952429;28;20495;-80
2022/01/12 06:17:38;;;;;;;85.03;12.20;;;;;;;;;;4946051;28;20019;-80
2022/01/12 06:20:05;;;;;;;31.33;11.32;;;;;;;;;;4945257;28;20139;-80
2022/01/12 06:22:31;;;;;;;85.40;13.68;;;;;;;;;;4947228;28;20034;-80
2022/01/12 06:24:59;;;;;;;31.27;11.10;;;;;;;;;;4940651;28;20038;-80
2022/01/12 06:27:30;;;;;;;30.02;11.30;;;;;;;;;;4953119;28;20073;-80
2022/01/12 06:32:41;;;;;;;39.78;12.18;;;;;;;;;;4950668;28;20042;-80
2022/01/12 06:35:08;;;;;;;50.85;12.35;;;;;;;;;;4941907;28;20034;-80
2022/01/12 06:37:34;;;;;;;71.15;13.88;;;;;;;;;;4938141;28;20035;-80
2022/01/12 06:40:00;;;;;;;71.53;15.68;;;;;;;;;;4944850;28;20031;-80
2022/01/12 06:42:26;;;;;;;240.15;23.42;;;;;;;;;;4960915;28;20042;-80
2022/01/12 06:44:52;;;;;;;211.70;20.42;;;;;;;;;;4959274;28;20109;-79
2022/01/12 06:47:19;;;;;;;166.85;19.13;;;;;;;;;;4958782;28;20026;-80
2022/01/12 06:49:45;;;;;;;134.88;16.50;;;;;;;;;;4950511;28;20034;-79
2022/01/12 06:52:11;;;;;;;65.38;11.20;;;;;;;;;;4952887;28;20073;-79
2022/01/12 06:54:37;;;;;;;108.88;15.95;;;;;;;;;;4944790;28;20415;-80
2022/01/12 06:57:03;;;;;;;89.75;11.85;;;;;;;;;;4946764;28;20034;-80
2022/01/12 06:59:33;;;;;;;84.32;13.45;;;;;;;;;;4947438;28;20043;-80
2022/01/12 07:01:59;;;;;;;54.22;11.35;;;;;;;;;;4952503;28;20494;-79
2022/01/12 07:04:25;;;;;;;53.72;9.68;;;;;;;;;;4948823;28;20379;-80
2022/01/12 07:06:51;;;;;;;79.15;13.38;;;;;;;;;;4960800;28;20472;-80
2022/01/12 07:09:17;;;;;;;52.38;11.27;;;;;;;;;;4948196;28;20034;-80
2022/01/12 07:11:43;;;;;;;74.85;12.57;;;;;;;;;;4960848;28;20051;-80
2022/01/12 07:14:10;;;;;;;80.25;11.32;;;;;;;;;;4936973;28;20046;-80
2022/01/12 07:16:36;;;;;;;42.53;8.63;;;;;;;;;;4949650;28;20376;-79
2022/01/12 07:19:02;;;;;;;41.33;8.90;;;;;;;;;;4952062;28;20405;-79
2022/01/12 07:21:29;;;;;;;38.40;9.23;;;;;;;;;;4958367;28;20034;-80
2022/01/12 07:23:56;;;;;;;36.22;9.10;;;;;;;;;;4957834;28;20026;-80
2022/01/12 07:26:23;;;;;;;70.60;9.50;;;;;;;;;;4949546;28;20487;-79
2022/01/12 07:28:49;;;;;;;68.60;9.77;;;;;;;;;;4947724;28;20034;-80
2022/01/12 07:31:15;;;;;;;53.95;9.52;;;;;;;;;;4948463;28;20462;-79
2022/01/12 07:33:41;;;;;;;34.65;8.02;;;;;;;;;;4950046;28;20043;-80
2022/01/12 07:36:07;;;;;;;45.45;8.80;;;;;;;;;;4960240;28;20039;-80
2022/01/12 07:38:33;;;;;;;51.65;8.30;;;;;;;;;;4947821;28;20070;-79
2022/01/12 07:40:59;;;;;;;48.97;9.07;;;;;;;;;;4944418;28;20069;-80
2022/01/12 07:43:26;;;;;;;27.92;8.57;;;;;;;;;;4944555;28;20484;-80
2022/01/12 07:45:52;;;;;;;38.97;8.02;;;;;;;;;;4942735;28;20085;-79
2022/01/12 07:48:28;;;;;;;77.60;12.38;;;;;;;;;;4951622;28;20031;-82
2022/01/12 07:50:55;;;;;;;40.78;9.85;;;;;;;;;;4963777;28;20058;-80
2022/01/12 07:53:21;;;;;;;36.65;8.15;;;;;;;;;;4947109;28;20023;-80
2022/01/12 07:55:47;;;;;;;57.65;11.02;;;;;;;;;;4961238;28;20038;-79
2022/01/12 07:58:13;;;;;;;60.00;10.98;;;;;;;;;;4960810;28;20466;-80
2022/01/12 08:00:39;;;;;;;53.03;9.70;;;;;;;;;;4946673;28;20299;-80
2022/01/12 08:03:05;;;;;;;45.58;9.02;;;;;;;;;;4946702;28;20423;-80
2022/01/12 08:05:31;;;;;;;30.70;8.23;;;;;;;;;;4949737;28;20030;-80
2022/01/12 08:07:58;;;;;;;27.33;8.05;;;;;;;;;;4950821;28;20394;-80
2022/01/12 08:10:24;;;;;;;60.03;9.40;;;;;;;;;;4940638;28;20046;-80
2022/01/12 08:12:50;;;;;;;48.10;8.18;;;;;;;;;;4927722;28;20047;-80
2022/01/12 08:15:17;;;;;;;65.50;8.98;;;;;;;;;;4924154;29;20400;-80
2022/01/12 08:17:43;;;;;;;57.33;9.50;;;;;;;;;;4925933;29;20031;-80
2022/01/12 08:20:11;;;;;;;26.50;7.93;;;;;;;;;;4921474;29;20047;-79
2022/01/12 08:22:38;;;;;;;48.70;8.07;;;;;;;;;;4919431;28;20509;-80
2022/01/12 08:25:05;;;;;;;30.35;7.88;;;;;;;;;;4937844;28;20315;-80
2022/01/12 08:27:32;;;;;;;36.97;8.10;;;;;;;;;;4940350;28;20031;-80
2022/01/12 08:30:02;;;;;;;25.67;8.25;;;;;;;;;;4926271;29;20031;-80
2022/01/12 08:32:29;;;;;;;41.28;9.60;;;;;;;;;;4925904;29;20115;-80
2022/01/12 08:34:55;;;;;;;46.15;8.52;;;;;;;;;;4940932;28;20038;-79
2022/01/12 08:37:21;;;;;;;26.70;7.25;;;;;;;;;;4925551;29;20491;-79
2022/01/12 08:39:47;;;;;;;31.23;7.10;;;;;;;;;;4945393;28;20027;-79
2022/01/12 08:42:13;;;;;;;53.50;8.75;;;;;;;;;;4938069;28;20031;-80
2022/01/12 08:44:39;;;;;;;58.60;10.07;;;;;;;;;;4934271;28;20035;-79
2022/01/12 08:47:05;;;;;;;59.30;10.68;;;;;;;;;;4939849;28;20484;-80
2022/01/12 08:49:31;;;;;;;56.00;9.35;;;;;;;;;;4936101;28;20490;-80
2022/01/12 08:51:57;;;;;;;87.07;12.15;;;;;;;;;;4930253;28;20039;-80
2022/01/12 08:54:24;;;;;;;76.05;11.23;;;;;;;;;;4923593;28;20126;-79
2022/01/12 08:56:50;;;;;;;37.50;8.45;;;;;;;;;;4941110;28;20039;-80
2022/01/12 08:59:17;;;;;;;64.10;9.23;;;;;;;;;;4928111;29;20559;-80
2022/01/12 09:01:44;;;;;;;75.70;11.05;;;;;;;;;;4927143;28;20985;-80
2022/01/12 09:04:10;;;;;;;64.65;9.35;;;;;;;;;;4922392;29;20043;-79
2022/01/12 09:06:36;;;;;;;67.50;10.88;;;;;;;;;;4923491;29;20027;-79
2022/01/12 09:09:04;;;;;;;92.30;12.77;;;;;;;;;;4925665;29;20259;-80
2022/01/12 09:11:30;;;;;;;86.72;13.27;;;;;;;;;;4928095;28;20047;-80
2022/01/12 09:13:56;;;;;;;73.55;11.00;;;;;;;;;;4938314;28;20034;-80
2022/01/12 09:16:22;;;;;;;37.40;8.02;;;;;;;;;;4927636;28;20515;-80
2022/01/12 09:18:48;;;;;;;46.92;8.85;;;;;;;;;;4926542;29;20507;-79
2022/01/12 09:21:14;;;;;;;31.75;7.30;;;;;;;;;;4925363;29;20251;-79
2022/01/12 09:23:40;;;;;;;63.47;8.50;;;;;;;;;;4944074;28;20046;-80
2022/01/12 09:26:06;;;;;;;55.17;6.90;;;;;;;;;;4921212;29;20035;-80
2022/01/12 09:28:33;;;;;;;50.13;7.43;;;;;;;;;;4938218;28;20034;-79
2022/01/12 09:30:59;;;;;;;65.88;7.60;;;;;;;;;;4924634;28;20137;-80
2022/01/12 09:33:25;;;;;;;30.48;5.35;;;;;;;;;;4929091;29;20028;-80
2022/01/12 09:35:53;;;;;;;56.63;5.78;;;;;;;;;;4929711;29;20067;-80
2022/01/12 09:38:20;;;;;;;16.95;3.15;;;;;;;;;;4927639;29;20050;-79
2022/01/12 09:40:46;;;;;;;51.17;5.85;;;;;;;;;;4944301;28;20042;-79
2022/01/12 09:43:13;;;;;;;28.10;4.75;;;;;;;;;;4921104;29;20098;-80
2022/01/12 09:45:43;;;;;;;48.03;7.32;;;;;;;;;;4920125;28;20035;-80
2022/01/12 09:48:10;;;;;;;39.38;4.65;;;;;;;;;;4926252;29;20647;-80
2022/01/12 09:50:37;;;;;;;29.05;5.03;;;;;;;;;;4920936;28;20053;-80
2022/01/12 09:53:04;;;;;;;39.60;3.65;;;;;;;;;;4924012;29;20042;-80
2022/01/12 09:55:30;;;;;;;46.22;4.57;;;;;;;;;;4930555;29;20380;-79
2022/01/12 09:57:56;;;;;;;11.60;1.73;;;;;;;;;;4923670;29;20447;-80
2022/01/12 10:00:23;;;;;;;29.83;5.57;;;;;;;;;;4924967;29;20031;-79
2022/01/12 10:02:49;;;;;;;32.22;4.43;;;;;;;;;;4938754;28;20805;-80
2022/01/12 10:05:15;;;;;;;41.97;5.60;;;;;;;;;;4930095;28;20039;-80
2022/01/12 10:07:41;;;;;;;46.33;5.95;;;;;;;;;;4941893;28;20031;-79
2022/01/12 10:10:09;;;;;;;68.35;7.32;;;;;;;;;;4926454;28;20403;-80
2022/01/12 10:12:35;;;;;;;25.30;6.22;;;;;;;;;;4929551;28;20118;-79
2022/01/12 10:15:03;;;;;;;41.80;6.97;;;;;;;;;;4942133;28;20035;-79
2022/01/12 10:17:40;;;;;;;47.90;6.82;;;;;;;;;;4928127;28;20117;-80
2022/01/12 10:20:19;;;;;;;19.42;5.35;;;;;;;;;;4944710;28;20103;-80
2022/01/12 10:22:59;;;;;;;13.80;4.10;;;;;;;;;;4944589;28;20027;-79
2022/01/12 10:25:26;;;;;;;17.08;3.95;;;;;;;;;;4929745;28;20027;-79
2022/01/12 10:27:52;;;;;;;19.42;5.53;;;;;;;;;;4942898;28;20507;-79
2022/01/12 10:30:19;;;;;;;32.53;3.85;;;;;;;;;;4944487;28;20174;-80
2022/01/12 10:32:45;;;;;;;30.45;3.85;;;;;;;;;;4942107;28;20026;-80
2022/01/12 10:35:11;;;;;;;28.05;5.13;;;;;;;;;;4932150;29;20114;-80
2022/01/12 10:37:37;;;;;;;27.88;4.85;;;;;;;;;;4930480;28;20027;-79
2022/01/12 10:40:03;;;;;;;26.02;4.88;;;;;;;;;;4927851;28;20042;-80
2022/01/12 10:42:30;;;;;;;39.55;5.63;;;;;;;;;;4927380;29;20027;-80
2022/01/12 10:44:57;;;;;;;25.67;5.22;;;;;;;;;;4926176;29;20030;-80
2022/01/12 10:47:34;;;;;;;20.65;4.32;;;;;;;;;;4928459;28;20740;-80
2022/01/12 10:50:01;;;;;;;35.38;5.75;;;;;;;;;;4945815;28;20059;-80
2022/01/12 10:52:28;;;;;;;25.58;5.32;;;;;;;;;;4926433;29;20043;-80
2022/01/12 10:54:56;;;;;;;21.30;5.15;;;;;;;;;;4941710;28;20055;-79
2022/01/12 10:57:24;;;;;;;27.90;5.90;;;;;;;;;;4934998;28;20354;-79
2022/01/12 11:00:00;;;;;;;25.92;5.00;;;;;;;;;;4926235;29;20235;-79
2022/01/12 11:02:28;;;;;;;21.27;4.78;;;;;;;;;;4941148;28;20059;-79
2022/01/12 11:04:55;;;;;;;21.42;5.72;;;;;;;;;;4929739;29;20439;-79
2022/01/12 11:07:21;;;;;;;22.05;4.80;;;;;;;;;;4925388;28;20035;-79
2022/01/12 11:09:47;;;;;;;17.92;5.25;;;;;;;;;;4929340;29;20023;-79
2022/01/12 11:12:14;;;;;;;23.33;5.72;;;;;;;;;;4957338;28;20054;-79
2022/01/12 11:14:40;;;;;;;16.25;4.35;;;;;;;;;;4966739;28;20972;-79
2022/01/12 11:17:06;;;;;;;31.00;6.20;;;;;;;;;;4947277;28;20656;-79
2022/01/12 11:19:32;;;;;;;14.65;4.90;;;;;;;;;;4965742;28;20035;-79
2022/01/12 11:22:17;;;;;;;22.48;5.55;;;;;;;;;;4948410;28;20031;-79
2022/01/12 11:24:43;;;;;;;19.98;5.00;;;;;;;;;;4946012;28;20119;-79
2022/01/12 11:27:19;;;;;;;24.73;6.60;;;;;;;;;;4947730;28;20067;-79
2022/01/12 11:29:45;;;;;;;16.58;4.82;;;;;;;;;;4962843;28;20035;-79
2022/01/12 11:32:22;;;;;;;23.65;6.57;;;;;;;;;;4947338;28;20069;-79
2022/01/12 11:34:58;;;;;;;23.58;5.97;;;;;;;;;;4953205;28;20178;-79
2022/01/12 11:37:25;;;;;;;;;;;;;;;;;;4957597;28;20394;-79
2022/01/12 11:39:51;;;;;;;26.92;4.93;;;;;;;;;;4945823;28;22275;-80
2022/01/12 11:42:18;;;;;;;17.15;4.47;;;;;;;;;;4946570;28;20090;-79
2022/01/12 11:44:45;;;;;;;19.63;4.72;;;;;;;;;;4962486;28;20031;-80
2022/01/12 11:47:12;;;;;;;23.90;5.90;;;;;;;;;;4951019;28;20086;-79
2022/01/12 11:49:38;;;;;;;13.38;4.22;;;;;;;;;;4952462;28;20038;-80
2022/01/12 11:52:18;;;;;;;16.60;5.22;;;;;;;;;;4943676;28;20143;-80
2022/01/12 11:54:47;;;;;;;26.20;6.80;;;;;;;;;;4950179;28;20105;-79
2022/01/12 11:57:19;;;;;;;28.52;6.80;;;;;;;;;;4962461;28;20491;-80
2022/01/12 11:59:53;;;;;;;23.08;6.90;;;;;;;;;;4948191;28;20039;-80
2022/01/12 12:02:20;;;;;;;26.48;5.32;;;;;;;;;;4950021;28;20034;-79
2022/01/12 12:04:54;;;;;;;34.05;8.02;;;;;;;;;;4948929;28;20151;-79
2022/01/12 12:07:20;;;;;;;28.70;8.02;;;;;;;;;;4947722;28;20558;-80
2022/01/12 12:09:58;;;;;;;23.65;6.45;;;;;;;;;;4943395;28;20676;-80
2022/01/12 12:12:28;;;;;;;33.22;8.38;;;;;;;;;;4937995;28;20489;-80
2022/01/12 12:14:55;;;;;;;16.95;5.82;;;;;;;;;;4938856;28;20058;-80
2022/01/12 12:17:22;;;;;;;36.88;8.35;;;;;;;;;;4947132;28;20033;-80
2022/01/12 12:19:49;;;;;;;27.73;7.38;;;;;;;;;;4938661;28;20035;-79
2022/01/12 12:22:19;;;;;;;20.17;6.55;;;;;;;;;;4929171;29;20483;-79
2022/01/12 12:24:47;;;;;;;28.83;8.68;;;;;;;;;;4926787;29;20039;-80
2022/01/12 12:27:18;;;;;;;43.35;9.88;;;;;;;;;;4937243;28;20484;-80
2022/01/12 12:29:45;;;;;;;22.38;6.03;;;;;;;;;;4940725;28;20134;-81
2022/01/12 12:32:13;;;;;;;21.10;5.40;;;;;;;;;;4939669;28;20070;-80
2022/01/12 12:34:40;;;;;;;35.92;8.65;;;;;;;;;;4930942;28;20054;-80
2022/01/12 12:37:09;;;;;;;22.92;6.45;;;;;;;;;;4929380;29;20094;-79
2022/01/12 12:39:37;;;;;;;24.05;7.30;;;;;;;;;;4928223;29;20043;-80
2022/01/12 12:42:04;;;;;;;30.75;7.63;;;;;;;;;;4941468;28;20031;-80
2022/01/12 12:44:40;;;;;;;21.83;7.35;;;;;;;;;;4940146;29;20035;-79
2022/01/12 12:47:08;;;;;;;37.75;8.27;;;;;;;;;;4930587;29;20058;-79
2022/01/12 12:49:56;;;;;;;25.17;6.90;;;;;;;;;;4926841;28;20039;-79
2022/01/12 12:52:23;;;;;;;34.00;8.20;;;;;;;;;;4928749;29;20042;-79
2022/01/12 12:54:49;;;;;;;19.55;4.78;;;;;;;;;;4925568;29;20248;-80
2022/01/12 12:57:20;;;;;;;36.50;8.85;;;;;;;;;;4926776;29;20040;-79
2022/01/12 12:59:47;;;;;;;41.28;10.98;;;;;;;;;;4925159;28;20060;-80
2022/01/12 13:02:13;;;;;;;25.17;9.15;;;;;;;;;;4923430;28;20909;-79
2022/01/12 13:04:40;;;;;;;31.80;9.30;;;;;;;;;;4928255;28;20518;-79
2022/01/12 13:07:13;;;;;;;48.83;9.68;;;;;;;;;;4921585;28;20034;-80
2022/01/12 13:09:39;;;;;;;28.05;8.15;;;;;;;;;;4936580;28;20058;-79
2022/01/12 13:12:05;;;;;;;29.33;8.15;;;;;;;;;;4925500;28;20648;-79
2022/01/12 13:14:41;;;;;;;19.60;4.88;;;;;;;;;;4927948;28;20031;-79
2022/01/12 13:17:07;;;;;;;37.28;8.57;;;;;;;;;;4938620;28;20090;-80
2022/01/12 13:22:26;;;;;;;31.80;8.15;;;;;;;;;;4940111;28;20729;-79
2022/01/12 13:24:52;;;;;;;20.27;6.10;;;;;;;;;;4926336;29;20032;-79
2022/01/12 13:27:19;;;;;;;35.05;7.68;;;;;;;;;;4926865;29;20082;-81
2022/01/12 13:29:47;;;;;;;29.83;10.18;;;;;;;;;;4942352;28;21190;-80
2022/01/12 13:32:13;;;;;;;24.63;7.95;;;;;;;;;;4943451;28;20556;-79
2022/01/12 13:34:42;;;;;;;32.30;8.52;;;;;;;;;;4924196;29;20031;-79
2022/01/12 13:37:13;;;;;;;25.85;8.48;;;;;;;;;;4918483;28;20525;-79
2022/01/12 13:39:39;;;;;;;32.65;9.27;;;;;;;;;;4938799;28;20491;-79
2022/01/12 13:42:06;;;;;;;35.78;8.38;;;;;;;;;;4927200;28;20827;-79
2022/01/12 13:44:32;;;;;;;28.58;8.90;;;;;;;;;;4940391;28;20472;-79
2022/01/12 13:47:22;;;;;;;28.65;8.18;;;;;;;;;;4940879;28;20549;-79
2022/01/12 13:49:48;;;;;;;19.63;6.82;;;;;;;;;;4920516;29;20028;-79
2022/01/12 13:52:14;;;;;;;29.80;8.13;;;;;;;;;;4922770;29;20051;-79
2022/01/12 13:54:45;;;;;;;28.30;8.20;;;;;;;;;;4928541;28;20536;-79
2022/01/12 13:57:12;;;;;;;32.60;7.85;;;;;;;;;;4929682;29;20034;-79
2022/01/12 13:59:45;;;;;;;27.77;8.20;;;;;;;;;;4929151;29;20474;-79
2022/01/12 14:02:15;;;;;;;19.70;5.90;;;;;;;;;;4945850;28;20102;-79
2022/01/12 14:04:45;;;;;;;24.02;7.15;;;;;;;;;;4925905;28;20031;-80
2022/01/12 14:07:21;;;;;;;17.25;5.50;;;;;;;;;;4928167;28;20031;-79
2022/01/12 14:09:53;;;;;;;31.55;8.50;;;;;;;;;;4929133;28;20544;-79
2022/01/12 14:12:19;;;;;;;25.23;8.90;;;;;;;;;;4934069;28;20055;-79
2022/01/12 14:14:46;;;;;;;31.70;7.32;;;;;;;;;;4948040;28;20897;-80
2022/01/12 14:17:31;;;;;;;24.92;8.75;;;;;;;;;;4951241;28;20028;-79
2022/01/12 14:19:58;;;;;;;22.80;9.15;;;;;;;;;;4948546;28;20483;-80
2022/01/12 14:22:25;;;;;;;24.25;7.45;;;;;;;;;;4967379;28;20039;-79
2022/01/12 14:24:59;;;;;;;16.02;4.97;;;;;;;;;;4950431;28;20471;-79
2022/01/12 14:27:25;;;;;;;23.17;7.18;;;;;;;;;;4950731;28;20034;-80
2022/01/12 14:29:51;;;;;;;18.73;6.57;;;;;;;;;;4949534;28;20046;-79
2022/01/12 14:32:17;;;;;;;25.98;7.38;;;;;;;;;;4962449;28;20435;-80
2022/01/12 14:34:43;;;;;;;22.35;6.90;;;;;;;;;;4943707;28;20062;-80
2022/01/12 14:37:10;;;;;;;33.20;8.93;;;;;;;;;;4949445;28;20027;-80
2022/01/12 14:39:36;;;;;;;22.25;5.90;;;;;;;;;;4968568;28;20031;-79
2022/01/12 14:42:02;;;;;;;15.48;5.70;;;;;;;;;;4963958;28;20082;-79
2022/01/12 14:44:32;;;;;;;12.60;5.47;;;;;;;;;;4946143;28;20122;-79
2022/01/12 14:46:59;;;;;;;30.90;7.50;;;;;;;;;;4945181;28;20499;-79
2022/01/12 14:49:25;;;;;;;21.90;7.72;;;;;;;;;;4959697;28;20023;-79
2022/01/12 14:51:51;;;;;;;26.73;8.85;;;;;;;;;;4949871;28;20035;-79
2022/01/12 14:54:17;;;;;;;24.55;7.72;;;;;;;;;;4967517;28;20149;-80
2022/01/12 14:56:43;;;;;;;35.63;8.98;;;;;;;;;;4951327;28;20125;-79
2022/01/12 14:59:09;;;;;;;39.40;9.18;;;;;;;;;;4945976;28;20121;-79
2022/01/12 15:01:35;;;;;;;24.25;7.68;;;;;;;;;;4946865;28;20026;-80
2022/01/12 15:04:01;;;;;;;21.85;6.78;;;;;;;;;;4962460;28;20030;-79
2022/01/12 15:06:27;;;;;;;17.67;6.57;;;;;;;;;;4960191;28;20081;-79
2022/01/12 15:08:53;;;;;;;26.85;7.78;;;;;;;;;;4950189;28;20023;-79
2022/01/12 15:11:19;;;;;;;13.27;5.32;;;;;;;;;;4957753;28;20022;-79
2022/01/12 15:13:55;;;;;;;28.70;8.75;;;;;;;;;;4952507;28;20053;-79
2022/01/12 15:16:22;;;;;;;21.73;6.88;;;;;;;;;;4945210;28;20027;-79
2022/01/12 15:18:48;;;;;;;22.08;7.45;;;;;;;;;;4966120;28;20473;-80
2022/01/12 15:21:15;;;;;;;29.58;7.25;;;;;;;;;;4965217;28;20118;-80
2022/01/12 15:23:41;;;;;;;34.17;7.90;;;;;;;;;;4946490;28;20411;-79
2022/01/12 15:26:07;;;;;;;26.17;8.43;;;;;;;;;;4943226;28;20440;-79
2022/01/12 15:28:33;;;;;;;37.15;10.00;;;;;;;;;;4950400;28;20031;-79
2022/01/12 15:30:59;;;;;;;34.70;9.30;;;;;;;;;;4947914;28;20031;-79
2022/01/12 15:33:25;;;;;;;35.83;9.18;;;;;;;;;;4949682;28;20022;-78
2022/01/12 15:35:51;;;;;;;26.33;8.13;;;;;;;;;;4945707;28;20062;-79
2022/01/12 15:38:17;;;;;;;24.77;7.57;;;;;;;;;;4942471;28;20039;-79
2022/01/12 15:40:44;;;;;;;39.72;8.73;;;;;;;;;;4950087;28;20091;-79
2022/01/12 15:43:10;;;;;;;25.92;8.38;;;;;;;;;;4959573;28;20122;-79
2022/01/12 15:45:37;;;;;;;32.67;8.60;;;;;;;;;;4954508;28;20380;-78
2022/01/12 15:48:04;;;;;;;23.58;9.13;;;;;;;;;;4948606;28;20092;-79